createdAt,value
2018-02-07T00:02:06.125Z,15.68
2018-02-07T00:04:34.068Z,19.33
2018-02-07T00:07:01.910Z,16.52
2018-02-07T00:09:29.680Z,17.37
2018-02-07T00:11:57.507Z,16.42
2018-02-07T00:14:25.275Z,17.33
2018-02-07T00:16:53.116Z,17.83
2018-02-07T00:19:21.015Z,20.17
2018-02-07T00:21:48.838Z,16.62
2018-02-07T00:24:16.606Z,20.37
2018-02-07T00:26:44.472Z,14.73
2018-02-07T00:29:12.238Z,19.23
2018-02-07T00:31:40.204Z,14.25
2018-02-07T00:34:08.144Z,18.20
2018-02-07T00:36:36.199Z,15.57
2018-02-07T00:39:04.138Z,25.25
2018-02-07T00:41:31.927Z,15.60
2018-02-07T00:43:59.711Z,15.68
2018-02-07T00:46:27.524Z,18.70
2018-02-07T00:48:55.367Z,15.82
2018-02-07T00:51:23.272Z,17.10
2018-02-07T00:53:51.067Z,19.08
2018-02-07T00:56:18.926Z,18.60
2018-02-07T00:58:46.719Z,15.63
2018-02-07T01:01:14.546Z,15.98
2018-02-07T01:03:42.322Z,17.45
2018-02-07T01:06:10.103Z,19.42
2018-02-07T01:08:37.965Z,15.38
2018-02-07T01:11:05.748Z,19.75
2018-02-07T01:13:33.583Z,19.85
2018-02-07T01:16:01.524Z,17.30
2018-02-07T01:18:29.352Z,21.95
2018-02-07T01:20:57.283Z,17.23
2018-02-07T01:23:25.139Z,21.08
2018-02-07T01:25:52.939Z,19.67
2018-02-07T01:28:20.758Z,16.15
2018-02-07T01:30:48.519Z,18.12
2018-02-07T01:33:16.340Z,18.33
2018-02-07T01:35:44.071Z,16.95
2018-02-07T01:38:12.052Z,18.05
2018-02-07T01:40:39.901Z,18.00
2018-02-07T01:43:07.753Z,19.08
2018-02-07T01:45:35.627Z,17.00
2018-02-07T01:48:03.513Z,18.80
2018-02-07T01:50:31.273Z,20.83
2018-02-07T01:52:59.121Z,16.92
2018-02-07T01:55:26.921Z,16.87
2018-02-07T01:57:54.751Z,18.55
2018-02-07T02:00:22.548Z,19.40
2018-02-07T02:02:50.391Z,19.08
2018-02-07T02:05:18.126Z,15.73
2018-02-07T02:07:45.975Z,16.20
2018-02-07T02:10:13.735Z,15.35
2018-02-07T02:12:41.616Z,17.80
2018-02-07T02:15:09.353Z,16.08
2018-02-07T02:17:37.160Z,13.80
2018-02-07T02:20:04.968Z,19.45
2018-02-07T02:22:32.809Z,15.30
2018-02-07T02:25:00.570Z,17.12
2018-02-07T02:27:28.375Z,16.50
2018-02-07T02:29:56.118Z,16.73
2018-02-07T02:32:23.965Z,18.20
2018-02-07T02:34:51.695Z,14.82
2018-02-07T02:37:19.503Z,17.40
2018-02-07T02:39:47.338Z,17.27
2018-02-07T02:42:15.096Z,15.02
2018-02-07T02:44:42.927Z,18.67
2018-02-07T02:47:10.653Z,18.30
2018-02-07T02:49:38.500Z,16.23
2018-02-07T02:52:06.231Z,20.00
2018-02-07T02:54:34.100Z,15.40
2018-02-07T02:57:02.039Z,17.15
2018-02-07T02:59:29.820Z,17.27
2018-02-07T03:01:57.729Z,16.00
2018-02-07T03:04:25.502Z,16.87
2018-02-07T03:06:53.280Z,17.35
2018-02-07T03:09:21.132Z,18.73
2018-02-07T03:11:48.882Z,19.92
2018-02-07T03:14:16.707Z,18.12
2018-02-07T03:16:44.695Z,16.87
2018-02-07T03:19:12.489Z,16.83
2018-02-07T03:21:40.233Z,15.27
2018-02-07T03:24:08.028Z,12.60
2018-02-07T03:26:35.797Z,18.58
2018-02-07T03:29:03.602Z,17.30
2018-02-07T03:31:31.356Z,19.42
2018-02-07T03:33:59.196Z,21.37
2018-02-07T03:36:26.981Z,17.87
2018-02-07T03:38:54.792Z,21.50
2018-02-07T03:41:22.573Z,14.93
2018-02-07T03:43:50.411Z,14.87
2018-02-07T03:46:18.186Z,16.92
2018-02-07T03:48:45.977Z,17.10
2018-02-07T03:51:13.777Z,19.05
2018-02-07T03:53:41.603Z,15.40
2018-02-07T03:56:09.357Z,17.05
2018-02-07T03:58:37.291Z,18.30
2018-02-07T04:01:05.068Z,18.00
2018-02-07T04:03:32.904Z,18.23
2018-02-07T04:06:00.816Z,15.45
2018-02-07T04:08:28.632Z,15.48
2018-02-07T04:10:56.423Z,17.85
2018-02-07T04:13:24.240Z,15.60
2018-02-07T04:15:52.037Z,16.80
2018-02-07T04:18:20.012Z,16.50
2018-02-07T04:20:47.924Z,16.85
2018-02-07T04:23:15.684Z,15.93
2018-02-07T04:25:43.502Z,17.70
2018-02-07T04:28:11.301Z,15.75
2018-02-07T04:30:39.191Z,15.15
2018-02-07T04:33:06.984Z,14.98
2018-02-07T04:35:34.795Z,17.40
2018-02-07T04:38:02.561Z,16.45
2018-02-07T04:40:30.425Z,15.50
2018-02-07T04:42:58.281Z,16.87
2018-02-07T04:45:26.136Z,16.83
2018-02-07T04:47:53.895Z,16.75
2018-02-07T04:50:21.716Z,16.92
2018-02-07T04:52:49.501Z,19.20
2018-02-07T04:55:17.312Z,20.50
2018-02-07T04:57:45.225Z,17.80
2018-02-07T05:00:13.075Z,16.15
2018-02-07T05:02:41.019Z,15.35
2018-02-07T05:05:08.850Z,16.27
2018-02-07T05:07:36.641Z,16.30
2018-02-07T05:10:04.479Z,16.42
2018-02-07T05:12:32.248Z,16.67
2018-02-07T05:15:00.095Z,15.20
2018-02-07T05:17:28.035Z,15.18
2018-02-07T05:19:55.836Z,17.27
2018-02-07T05:22:23.636Z,16.52
2018-02-07T05:24:51.488Z,18.15
2018-02-07T05:27:19.235Z,16.48
2018-02-07T05:29:47.198Z,14.75
2018-02-07T05:32:15.236Z,15.07
2018-02-07T05:34:43.079Z,14.30
2018-02-07T05:37:10.892Z,14.77
2018-02-07T05:39:38.712Z,15.63
2018-02-07T05:42:06.508Z,18.45
2018-02-07T05:44:34.284Z,14.70
2018-02-07T05:47:02.103Z,15.98
2018-02-07T05:49:30.055Z,16.95
2018-02-07T05:51:57.849Z,16.62
2018-02-07T05:54:25.714Z,19.48
2018-02-07T05:56:53.468Z,23.23
2018-02-07T05:59:21.350Z,14.90
2018-02-07T06:01:49.142Z,16.40
2018-02-07T06:04:16.964Z,14.63
2018-02-07T06:06:44.756Z,16.02
2018-02-07T06:09:12.544Z,16.95
2018-02-07T06:11:40.381Z,15.45
2018-02-07T06:14:08.136Z,17.83
2018-02-07T06:16:35.963Z,14.38
2018-02-07T06:19:03.772Z,14.35
2018-02-07T06:21:31.635Z,19.85
2018-02-07T06:23:59.585Z,16.02
2018-02-07T06:26:27.420Z,14.15
2018-02-07T06:28:55.209Z,15.75
2018-02-07T06:31:23.092Z,20.27
2018-02-07T06:33:50.900Z,18.23
2018-02-07T06:36:18.787Z,14.63
2018-02-07T06:38:46.576Z,16.20
2018-02-07T06:41:14.381Z,16.62
2018-02-07T06:43:42.177Z,18.05
2018-02-07T06:46:09.988Z,67.00
2018-02-07T06:48:37.885Z,18.90
2018-02-07T06:51:05.815Z,23.67
2018-02-07T06:53:33.575Z,19.05
2018-02-07T06:56:01.404Z,19.98
2018-02-07T06:58:29.192Z,14.43
2018-02-07T07:00:57.024Z,18.27
2018-02-07T07:03:24.864Z,20.58
2018-02-07T07:05:52.698Z,14.82
2018-02-07T07:08:20.489Z,17.17
2018-02-07T07:10:48.386Z,17.73
2018-02-07T07:13:16.198Z,16.62
2018-02-07T07:15:44.037Z,21.80
2018-02-07T07:18:11.820Z,24.00
2018-02-07T07:20:39.792Z,22.05
2018-02-07T07:23:07.580Z,19.75
2018-02-07T07:25:35.590Z,19.48
2018-02-07T07:28:03.464Z,20.62
2018-02-07T07:30:31.352Z,24.75
2018-02-07T07:32:59.275Z,19.33
2018-02-07T07:35:27.136Z,21.48
2018-02-07T07:37:54.935Z,20.85
2018-02-07T07:40:22.768Z,21.70
2018-02-07T07:42:50.535Z,19.75
2018-02-07T07:45:18.324Z,20.33
2018-02-07T07:47:46.110Z,19.55
2018-02-07T07:50:13.892Z,31.52
2018-02-07T07:52:41.758Z,26.58
2018-02-07T07:58:40.912Z,20.50
2018-02-07T08:01:08.755Z,19.02
2018-02-07T08:03:36.548Z,22.40
2018-02-07T08:06:04.384Z,20.70
2018-02-07T08:08:32.249Z,20.27
2018-02-07T08:11:00.081Z,21.00
2018-02-07T08:13:27.917Z,19.27
2018-02-07T08:15:55.744Z,20.65
2018-02-07T08:18:23.565Z,21.08
2018-02-07T08:20:51.377Z,21.42
2018-02-07T08:23:19.193Z,23.90
2018-02-07T08:25:47.143Z,19.45
2018-02-07T08:28:14.917Z,20.98
2018-02-07T08:30:42.769Z,23.02
2018-02-07T08:33:10.561Z,19.25
2018-02-07T08:35:38.422Z,25.23
2018-02-07T08:38:06.255Z,23.10
2018-02-07T08:40:34.048Z,19.33
2018-02-07T08:43:02.036Z,21.00
2018-02-07T08:45:29.878Z,22.17
2018-02-07T08:47:57.706Z,21.33
2018-02-07T08:50:25.502Z,19.42
2018-02-07T08:52:53.368Z,22.75
2018-02-07T08:55:21.226Z,28.25
2018-02-07T08:57:49.076Z,20.75
2018-02-07T09:00:16.864Z,31.62
2018-02-07T09:02:44.708Z,23.65
2018-02-07T09:05:12.487Z,21.98
2018-02-07T09:07:40.318Z,22.15
2018-02-07T09:10:08.152Z,26.10
2018-02-07T09:12:36.001Z,22.30
2018-02-07T09:15:03.899Z,22.35
2018-02-07T09:17:31.814Z,20.37
2018-02-07T09:19:59.588Z,20.92
2018-02-07T09:22:27.399Z,19.55
2018-02-07T09:24:55.201Z,19.75
2018-02-07T09:27:23.036Z,25.10
2018-02-07T09:29:50.859Z,22.92
2018-02-07T09:32:18.695Z,21.98
2018-02-07T09:34:46.560Z,23.27
2018-02-07T09:37:14.401Z,21.47
2018-02-07T09:39:42.259Z,19.93
2018-02-07T09:42:10.103Z,21.62
2018-02-07T09:44:37.956Z,23.73
2018-02-07T09:47:05.784Z,20.97
2018-02-07T09:49:33.551Z,19.43
2018-02-07T09:52:01.379Z,20.77
2018-02-07T09:54:29.216Z,19.77
2018-02-07T09:56:57.070Z,22.70
2018-02-07T09:59:24.964Z,23.67
2018-02-07T10:01:52.818Z,21.77
2018-02-07T10:04:20.624Z,22.73
2018-02-07T10:06:48.438Z,19.90
2018-02-07T10:09:16.566Z,23.20
2018-02-07T10:11:44.384Z,20.83
2018-02-07T10:14:12.163Z,22.23
2018-02-07T10:16:40.062Z,20.43
2018-02-07T10:19:07.902Z,21.67
2018-02-07T10:21:36.003Z,15.47
2018-02-07T10:24:03.855Z,20.07
2018-02-07T10:26:31.939Z,22.30
2018-02-07T10:28:59.786Z,21.83
2018-02-07T10:31:27.546Z,18.77
2018-02-07T10:33:55.396Z,18.00
2018-02-07T10:36:23.204Z,18.80
2018-02-07T10:38:51.106Z,19.23
2018-02-07T10:41:18.985Z,20.50
2018-02-07T10:43:46.838Z,21.47
2018-02-07T10:46:14.612Z,19.40
2018-02-07T10:48:42.472Z,18.00
2018-02-07T10:51:10.252Z,17.87
2018-02-07T10:53:38.031Z,18.93
2018-02-07T10:56:05.876Z,18.93
2018-02-07T10:58:33.773Z,17.10
2018-02-07T11:01:01.561Z,21.70
2018-02-07T11:03:29.449Z,17.83
2018-02-07T11:05:57.189Z,19.23
2018-02-07T11:08:25.022Z,16.30
2018-02-07T11:10:52.799Z,15.00
2018-02-07T11:13:20.574Z,17.70
2018-02-07T11:15:48.328Z,17.70
2018-02-07T11:18:16.140Z,18.10
2018-02-07T11:20:43.910Z,19.73
2018-02-07T11:23:11.710Z,21.90
2018-02-07T11:25:39.452Z,18.63
2018-02-07T11:28:07.286Z,16.57
2018-02-07T11:30:35.065Z,16.30
2018-02-07T11:33:02.889Z,20.10
2018-02-07T11:35:30.673Z,20.63
2018-02-07T11:37:58.507Z,16.20
2018-02-07T11:40:26.265Z,17.50
2018-02-07T11:42:54.103Z,16.83
2018-02-07T11:45:21.860Z,19.47
2018-02-07T11:47:49.635Z,20.07
2018-02-07T11:50:18.196Z,15.30
2018-02-07T11:52:46.046Z,18.40
2018-02-07T11:55:13.840Z,17.30
2018-02-07T11:57:41.729Z,13.80
2018-02-07T12:00:09.498Z,18.53
2018-02-07T12:02:37.299Z,20.13
2018-02-07T12:05:05.099Z,18.80
2018-02-07T12:07:32.891Z,22.77
2018-02-07T12:10:00.851Z,19.27
2018-02-07T12:12:28.636Z,20.20
2018-02-07T12:14:56.440Z,18.70
2018-02-07T12:17:24.367Z,21.67
2018-02-07T12:19:52.206Z,22.87
2018-02-07T12:22:20.051Z,18.90
2018-02-07T12:24:47.844Z,21.93
2018-02-07T12:27:15.646Z,24.07
2018-02-07T12:29:44.441Z,23.60
2018-02-07T12:32:12.212Z,18.17
2018-02-07T12:34:40.132Z,18.83
2018-02-07T12:37:07.947Z,21.70
2018-02-07T12:39:35.808Z,18.97
2018-02-07T12:42:04.662Z,15.03
2018-02-07T12:44:32.569Z,17.77
2018-02-07T12:47:00.346Z,15.10
2018-02-07T12:49:28.156Z,18.43
2018-02-07T12:51:55.995Z,19.57
2018-02-07T12:54:24.007Z,17.20
2018-02-07T12:56:51.773Z,19.00
2018-02-07T12:59:19.591Z,16.40
2018-02-07T13:01:47.382Z,15.73
2018-02-07T13:04:15.195Z,20.17
2018-02-07T13:06:42.968Z,15.10
2018-02-07T13:09:10.783Z,17.33
2018-02-07T13:11:38.579Z,16.93
2018-02-07T13:14:06.407Z,19.00
2018-02-07T13:16:34.172Z,16.30
2018-02-07T13:19:02.007Z,14.87
2018-02-07T13:21:29.775Z,19.70
2018-02-07T13:23:57.647Z,20.97
2018-02-07T13:26:25.747Z,18.17
2018-02-07T13:28:53.659Z,18.83
2018-02-07T13:31:21.420Z,16.03
2018-02-07T13:33:49.224Z,16.20
2018-02-07T13:36:17.024Z,19.77
2018-02-07T13:38:44.860Z,18.80
2018-02-07T13:41:12.623Z,20.70
2018-02-07T13:43:40.460Z,18.27
2018-02-07T13:46:08.302Z,19.50
2018-02-07T13:48:36.080Z,18.10
2018-02-07T13:51:03.904Z,19.03
2018-02-07T13:53:31.688Z,20.87
2018-02-07T13:55:59.528Z,15.57
2018-02-07T13:58:27.328Z,18.97
2018-02-07T14:00:55.162Z,16.30
2018-02-07T14:03:22.955Z,18.40
2018-02-07T14:05:50.756Z,16.47
2018-02-07T14:08:18.620Z,17.77
2018-02-07T14:10:46.490Z,14.83
2018-02-07T14:13:14.255Z,17.37
2018-02-07T14:15:42.168Z,17.70
2018-02-07T14:18:09.939Z,16.20
2018-02-07T14:20:37.878Z,20.50
2018-02-07T14:23:05.975Z,15.47
2018-02-07T14:25:33.837Z,17.53
2018-02-07T14:28:01.666Z,16.50
2018-02-07T14:30:29.506Z,15.87
2018-02-07T14:33:03.023Z,18.50
2018-02-07T14:35:31.621Z,16.30
2018-02-07T14:37:59.358Z,17.40
2018-02-07T14:40:27.169Z,15.10
2018-02-07T14:42:54.940Z,16.67
2018-02-07T14:45:22.823Z,15.20
2018-02-07T14:47:50.635Z,15.20
2018-02-07T14:50:18.434Z,22.33
2018-02-07T14:52:46.312Z,18.27
2018-02-07T14:55:14.185Z,20.63
2018-02-07T14:57:42.929Z,16.30
2018-02-07T15:00:10.956Z,17.90
2018-02-07T15:02:38.791Z,15.70
2018-02-07T15:05:06.637Z,16.70
2018-02-07T15:07:34.431Z,19.20
2018-02-07T15:10:02.220Z,17.20
2018-02-07T15:12:30.113Z,25.60
2018-02-07T15:14:57.942Z,17.40
2018-02-07T15:17:25.740Z,17.40
2018-02-07T15:19:53.786Z,23.67
2018-02-07T15:22:21.580Z,16.37
2018-02-07T15:24:49.391Z,18.67
2018-02-07T15:27:17.176Z,19.73
2018-02-07T15:29:45.001Z,21.90
2018-02-07T15:32:12.858Z,18.53
2018-02-07T15:34:40.700Z,14.40
2018-02-07T15:37:08.515Z,16.40
2018-02-07T15:39:36.280Z,17.70
2018-02-07T15:42:04.104Z,16.63
2018-02-07T15:44:31.845Z,17.10
2018-02-07T15:46:59.668Z,18.30
2018-02-07T15:49:27.464Z,18.90
2018-02-07T15:51:55.299Z,16.67
2018-02-07T15:54:23.017Z,14.77
2018-02-07T15:56:50.867Z,16.10
2018-02-07T15:59:18.619Z,18.00
2018-02-07T16:01:46.458Z,17.47
2018-02-07T16:04:14.306Z,16.73
2018-02-07T16:06:42.169Z,15.73
2018-02-07T16:09:10.007Z,18.97
2018-02-07T16:11:37.872Z,22.90
2018-02-07T16:14:05.659Z,18.67
2018-02-07T16:16:33.496Z,18.23
2018-02-07T16:19:01.269Z,17.90
2018-02-07T16:21:29.139Z,23.40
2018-02-07T16:23:57.086Z,19.50
2018-02-07T16:26:24.927Z,14.87
2018-02-07T16:28:52.744Z,18.83
2018-02-07T16:31:20.583Z,18.63
2018-02-07T16:33:48.398Z,20.23
2018-02-07T16:36:16.295Z,17.17
2018-02-07T16:38:44.088Z,21.23
2018-02-07T16:41:11.957Z,20.53
2018-02-07T16:43:39.801Z,23.50
2018-02-07T16:46:07.655Z,22.00
2018-02-07T16:48:35.441Z,17.07
2018-02-07T16:51:03.277Z,18.90
2018-02-07T16:53:31.069Z,19.57
2018-02-07T16:55:58.958Z,19.70
2018-02-07T16:58:26.705Z,16.47
2018-02-07T17:00:54.529Z,18.80
2018-02-07T17:03:22.400Z,17.93
2018-02-07T17:05:50.263Z,18.53
2018-02-07T17:08:18.050Z,20.13
2018-02-07T17:10:45.874Z,18.70
2018-02-07T17:13:13.617Z,15.67
2018-02-07T17:15:41.526Z,16.10
2018-02-07T17:18:09.312Z,17.13
2018-02-07T17:20:37.091Z,17.20
2018-02-07T17:23:04.934Z,22.30
2018-02-07T17:25:32.757Z,19.93
2018-02-07T17:28:00.616Z,19.43
2018-02-07T17:30:28.417Z,17.80
2018-02-07T17:32:56.257Z,20.30
2018-02-07T17:35:24.019Z,20.23
2018-02-07T17:37:51.919Z,18.77
2018-02-07T17:40:19.709Z,20.40
2018-02-07T17:42:47.572Z,16.87
2018-02-07T17:45:15.350Z,18.00
2018-02-07T17:47:43.175Z,18.43
2018-02-07T17:50:11.009Z,19.20
2018-02-07T17:52:38.835Z,20.03
2018-02-07T17:55:06.635Z,21.93
2018-02-07T17:57:34.468Z,17.83
2018-02-07T18:00:02.268Z,20.15
2018-02-07T18:02:30.139Z,18.07
2018-02-07T18:04:57.996Z,18.92
2018-02-07T18:07:25.857Z,17.35
2018-02-07T18:09:53.600Z,15.68
2018-02-07T18:12:21.414Z,19.75
2018-02-07T18:14:49.175Z,22.08
2018-02-07T18:17:16.970Z,18.98
2018-02-07T18:19:44.739Z,17.00
2018-02-07T18:22:12.544Z,19.45
2018-02-07T18:24:40.300Z,22.08
2018-02-07T18:27:08.218Z,16.98
2018-02-07T18:29:36.005Z,15.85
2018-02-07T18:32:03.866Z,17.40
2018-02-07T18:34:31.696Z,18.83
2018-02-07T18:36:59.495Z,17.83
2018-02-07T18:39:27.261Z,23.58
2018-02-07T18:41:55.026Z,19.73
2018-02-07T18:44:22.782Z,18.98
2018-02-07T18:46:50.614Z,19.65
2018-02-07T18:49:18.447Z,17.45
2018-02-07T18:51:46.242Z,18.85
2018-02-07T18:54:14.083Z,21.98
2018-02-07T18:56:41.932Z,18.40
2018-02-07T18:59:09.703Z,19.45
2018-02-07T19:01:37.648Z,18.60
2018-02-07T19:04:05.449Z,20.45
2018-02-07T19:06:33.243Z,16.90
2018-02-07T19:09:01.103Z,19.60
2018-02-07T19:11:28.883Z,20.40
2018-02-07T19:13:56.682Z,20.92
2018-02-07T19:16:24.581Z,22.90
2018-02-07T19:18:52.372Z,23.10
2018-02-07T19:21:20.240Z,22.05
2018-02-07T19:23:48.094Z,17.67
2018-02-07T19:26:15.923Z,22.02
2018-02-07T19:28:43.719Z,23.98
2018-02-07T19:31:11.480Z,19.50
2018-02-07T19:33:39.403Z,21.73
2018-02-07T19:36:07.259Z,20.83
2018-02-07T19:38:35.112Z,21.95
2018-02-07T19:41:02.876Z,18.00
2018-02-07T19:43:30.714Z,20.23
2018-02-07T19:45:58.505Z,18.08
2018-02-07T19:48:26.387Z,20.45
2018-02-07T19:50:54.246Z,21.65
2018-02-07T19:53:22.172Z,22.98
2018-02-07T19:55:49.976Z,19.62
2018-02-07T19:58:17.824Z,20.00
2018-02-07T20:00:45.595Z,19.90
2018-02-07T20:03:13.481Z,24.48
2018-02-07T20:05:41.308Z,20.27
2018-02-07T20:08:09.151Z,19.87
2018-02-07T20:10:36.925Z,22.95
2018-02-07T20:13:04.753Z,18.87
2018-02-07T20:15:32.560Z,23.15
2018-02-07T20:18:00.386Z,21.95
2018-02-07T20:20:28.243Z,21.33
2018-02-07T20:22:56.122Z,20.10
2018-02-07T20:25:23.943Z,19.92
2018-02-07T20:27:51.854Z,22.95
2018-02-07T20:30:19.691Z,19.95
2018-02-07T20:32:47.579Z,23.02
2018-02-07T20:35:15.348Z,22.87
2018-02-07T20:37:43.163Z,22.83
2018-02-07T20:40:10.953Z,24.55
2018-02-07T20:42:38.782Z,20.73
2018-02-07T20:45:06.655Z,23.67
2018-02-07T20:47:34.375Z,22.48
2018-02-07T20:50:02.284Z,20.27
2018-02-07T20:52:30.022Z,22.77
2018-02-07T20:54:57.869Z,21.02
2018-02-07T20:57:25.628Z,25.58
2018-02-07T20:59:53.456Z,25.33
2018-02-07T21:02:21.260Z,26.23
2018-02-07T21:04:49.122Z,20.62
2018-02-07T21:07:16.892Z,27.13
2018-02-07T21:09:44.742Z,25.12
2018-02-07T21:12:12.556Z,22.65
2018-02-07T21:14:40.428Z,23.42
2018-02-07T21:17:08.215Z,24.27
2018-02-07T21:19:36.135Z,25.65
2018-02-07T21:22:03.953Z,25.55
2018-02-07T21:24:31.988Z,23.58
2018-02-07T21:26:59.787Z,22.08
2018-02-07T21:29:27.648Z,21.75
2018-02-07T21:31:55.448Z,23.65
2018-02-07T21:34:23.267Z,21.73
2018-02-07T21:36:51.087Z,20.95
2018-02-07T21:39:18.930Z,24.23
2018-02-07T21:41:46.719Z,24.33
2018-02-07T21:44:14.600Z,20.95
2018-02-07T21:46:42.434Z,21.23
2018-02-07T21:49:10.358Z,21.60
2018-02-07T21:51:38.226Z,21.50
2018-02-07T21:54:06.050Z,23.67
2018-02-07T21:56:33.941Z,22.05
2018-02-07T21:59:01.791Z,89.53
2018-02-07T22:01:29.624Z,84.25
2018-02-07T22:03:57.459Z,77.60
2018-02-07T22:06:25.284Z,76.53
2018-02-07T22:08:53.155Z,42.45
2018-02-07T22:11:21.064Z,35.00
2018-02-07T22:13:48.906Z,27.17
2018-02-07T22:16:16.691Z,28.42
2018-02-07T22:18:44.528Z,22.50
2018-02-07T22:21:12.310Z,24.87
2018-02-07T22:23:40.144Z,23.30
2018-02-07T22:26:07.948Z,26.50
2018-02-07T22:28:35.811Z,27.27
2018-02-07T22:31:03.697Z,23.25
2018-02-07T22:33:31.555Z,21.08
2018-02-07T22:35:59.459Z,25.08
2018-02-07T22:38:27.262Z,23.90
2018-02-07T22:40:55.058Z,23.30
2018-02-07T22:43:22.796Z,24.77
2018-02-07T22:45:50.585Z,25.15
2018-02-07T22:48:18.360Z,23.48
2018-02-07T22:50:46.144Z,24.58
2018-02-07T22:53:13.865Z,21.58
2018-02-07T22:55:41.660Z,22.13
2018-02-07T22:58:09.408Z,22.95
2018-02-07T23:00:37.239Z,27.17
2018-02-07T23:03:04.996Z,21.50
2018-02-07T23:05:32.830Z,23.17
2018-02-07T23:08:00.572Z,22.25
2018-02-07T23:10:28.370Z,22.37
2018-02-07T23:12:56.121Z,29.58
2018-02-07T23:15:23.951Z,20.12
2018-02-07T23:17:51.694Z,22.23
2018-02-07T23:20:19.477Z,21.02
2018-02-07T23:22:47.231Z,23.73
2018-02-07T23:25:15.150Z,25.50
2018-02-07T23:27:42.900Z,27.65
2018-02-07T23:30:10.743Z,28.50
2018-02-07T23:32:38.476Z,21.77
2018-02-07T23:35:06.261Z,24.20
2018-02-07T23:37:34.110Z,22.13
2018-02-07T23:40:01.888Z,26.55
2018-02-07T23:42:29.677Z,21.30
2018-02-07T23:44:57.474Z,27.17
2018-02-07T23:47:25.231Z,23.02
2018-02-07T23:49:53.091Z,25.75
2018-02-07T23:52:20.837Z,23.98
2018-02-07T23:54:48.681Z,23.45
2018-02-07T23:57:16.428Z,27.37
2018-02-07T23:59:44.217Z,26.05
